Friday, May 6, 2016, 8:23 PM EDT

KMUI, Muir Army Air Field / Indiantown

Location: Jonestown, PA, United States Lat: 40.433
Local Time: 8:23 PM EDT ( 0:23 GMT) Lon: -76.567
Time Zone: US/Eastern Elev: 488 ft

Show me the last for .
Show Decoded

2016-05-06 19:58 METAR KMUI 062358Z AUTO 05004KT 10SM OVC013 11/11 A2970 RMK AO2
                 RAE2259DZB2259E22 OVC V BKN SLP060 P0001 60034 T01090109 10117 20107 53009 =
2016-05-06 19:22 METAR KMUI 062322Z AUTO 04008KT 6SM BR BKN013 OVC019 11/11 A2969 RMK AO2
                 RAE2259DZB2259E22 =
2016-05-06 19:06 METAR KMUI 062306Z AUTO 04004KT 4SM -DZ BR BKN011 OVC021 11/11 A2968 RMK AO2
                 RAE2259DZB2259 CIG 011V021 BKN V SCT =
2016-05-06 19:00 METAR KMUI 062300Z AUTO 04004KT 3SM -DZ BR SCT012 OVC021 11/11 A2968 RMK AO2
                 RAE2259DZB2259 =
2016-05-06 18:58 METAR KMUI 062258Z AUTO 05004KT 3SM -RA BR FEW013 OVC019 11/11 A2968 RMK AO2
                 DZE00DZB04E41RAB41E42RAB49 SLP054 P0003 T01100110 =
2016-05-06 18:49 METAR KMUI 062249Z AUTO 06008KT 4SM -RA BR FEW007 OVC017 11/11 A2968 RMK AO2
                 DZE00DZB04E41RAB41E42RAB49 =
2016-05-06 18:42 METAR KMUI 062242Z AUTO 06008KT 6SM BR FEW008 OVC018 11/11 A2968 RMK AO2
                 DZE00DZB04E41RAB41E42 CIG 007V018 =
2016-05-06 18:40 METAR KMUI 062240Z AUTO 07009KT 4SM -DZ BR FEW006 OVC016 11/11 A2968 RMK AO2
                 DZE00DZB04 CIG 007V016 =
2016-05-06 18:38 METAR KMUI 062238Z AUTO VRB06KT 3SM -DZ BR FEW006 OVC014 11/11 A2968 RMK AO2
                 DZE00DZB04 CIG 007V014 =
2016-05-06 18:36 METAR KMUI 062236Z AUTO 05007KT 2SM DZ BR FEW006 OVC010 11/11 A2968 RMK AO2 VIS
                 1 1/2V2 DZE00DZB04 CIG 007V010 =
2016-05-06 18:32 METAR KMUI 062232Z AUTO 07005KT 1 3/4SM DZ BR OVC007 11/11 A2968 RMK AO2
                 DZE00DZB04 =
2016-05-06 18:28 METAR KMUI 062228Z AUTO VRB04KT 1 1/2SM -DZ BR OVC007 11/11 A2968 RMK AO2
                 DZE00DZB04 =
2016-05-06 18:24 METAR KMUI 062224Z AUTO 08006KT 1 3/4SM -DZ BR OVC007 11/11 A2968 RMK AO2
                 DZE00DZB04 CIG 007V010 =
2016-05-06 18:20 METAR KMUI 062220Z AUTO 06003KT 1 1/2SM -DZ BR OVC008 11/11 A2967 RMK AO2 VIS 1
                 1/2V2 1/2 DZE00DZB04 CIG 007V013 =
2016-05-06 18:18 METAR KMUI 062218Z AUTO 06003KT 1 1/2SM -DZ BR OVC009 11/11 A2967 RMK AO2 VIS 1
                 1/2V2 1/2 DZE00DZB04 CIG 007V013 =
2016-05-06 18:16 METAR KMUI 062216Z AUTO 08003KT 1 3/4SM -DZ BR OVC009 11/11 A2967 RMK AO2 VIS 1
                 3/4V3 DZE00DZB04 CIG 007V013 =
2016-05-06 18:14 METAR KMUI 062214Z AUTO 08003KT 1 3/4SM -DZ BR BKN007 OVC012 11/11 A2967 RMK AO2
                 VIS 1 3/4V4 DZE00DZB04 CIG 007V013 BKN V SCT =
2016-05-06 18:12 METAR KMUI 062212Z 07003KT 2SM -DZ BR SCT007 OVC013 11/11 A2967 RMK AO2A VIS 2V6
                 DZE00DZB04 CIG 007V013 =
2016-05-06 18:10 METAR KMUI 062210Z 07004KT 2 1/2SM -DZ BR BKN008 OVC014 11/11 A2967 RMK AO2A VIS
                 2 1/2V7 DZE00DZB04 =
2016-05-06 18:00 METAR KMUI 062200Z 07005KT 4SM -DZ BKN009 OVC021 11/11 A2967 RMK AO2A CIG
                 009V022 BKN V SCT =
2016-05-06 17:58 METAR KMUI 062158Z 07003KT 4SM -DZ SCT009 BKN015 OVC021 11/11 A2967 RMK AO2A
                 RAE2059DZB2059E08RAB08E09DZB20E30RAB32E33DZB33E43RAB43E53DZB53 CIG 015V022 BKN V
                 SCT SLP050 P0001 =
2016-05-06 17:14 METAR KMUI 062114Z 01006KT 3SM BR BKN017 OVC024 11/11 A2967 RMK AO2A
                 RAE2059DZB2059E08RAB08E09 CIG 017V026 SLP049 =
2016-05-06 17:09 METAR KMUI 062109Z AUTO 01006KT 9SM BKN018 OVC026 11/11 A2967 RMK AO2
                 RAE2059DZB2059E08RAB08E09 CIG 018V026 =
2016-05-06 17:08 METAR KMUI 062108Z AUTO 36007KT 8SM -DZ BKN019 OVC026 11/11 A2967 RMK AO2
                 RAE2059DZB2059 CIG 019V026 BKN V SCT =
2016-05-06 16:58 METAR KMUI 062058Z 02005KT 5SM -RA BR SCT021 OVC028 11/11 A2967 RMK AO2A CIG
                 021V032 OVC V BKN SLP050 P0008 60029 T01090109 55002 =
2016-05-06 16:54 METAR KMUI 062054Z AUTO 03005KT 5SM -RA BR SCT021 OVC029 11/11 A2967 RMK AO2 =
2016-05-06 16:52 METAR KMUI 062052Z AUTO 02005KT 6SM -RA BR SCT021 OVC030 11/11 A2967 RMK AO2 =
2016-05-06 16:50 METAR KMUI 062050Z AUTO 03005KT 6SM -RA BR SCT021 BKN028 OVC032 11/11 A2967 RMK
                 AO2 =
2016-05-06 16:02 METAR KMUI 062002Z 01007KT 4SM RA BR BKN042 11/11 A2966 RMK AO2A VIS 2 1/2V4
                 SLP048 =
2016-05-06 16:00 METAR KMUI 062000Z AUTO 01008KT 2 1/2SM RA BR BKN040 11/11 A2966 RMK AO2 VIS 2
                 1/2V6 =
2016-05-06 15:58 METAR KMUI 061958Z AUTO 01008KT 3SM RA BR FEW015 BKN040 11/11 A2967 RMK AO2
                 RAE12RAB44 SLP050 P0004 T01130112 =
2016-05-06 15:44 METAR KMUI 061944Z AUTO VRB06KT 10SM -RA FEW012 SCT065 12/11 A2967 RMK AO2
                 RAE12RAB44 =
2016-05-06 15:13 METAR KMUI 061913Z AUTO 02010G20KT 320V040 10SM SCT026 BKN065 11/11 A2964 RMK
                 AO2 RAE12 =
2016-05-06 15:12 METAR KMUI 061912Z AUTO 01009G20KT 10SM -RA SCT026 BKN065 11/11 A2964 RMK AO2 =
2016-05-06 14:58 METAR KMUI 061858Z AUTO 35013G18KT 3SM +RA BR FEW011 OVC026 11/11 A2964 RMK AO2
                 SLP040 P0017 T01070107 =
2016-05-06 14:56 METAR KMUI 061856Z AUTO 36010KT 3SM +RA BR FEW011 OVC026 11/11 A2965 RMK AO2
                 PRESFR =
2016-05-06 14:42 METAR KMUI 061842Z AUTO 04008KT 2 1/2SM RA BR SCT019 OVC024 11/11 A2968 RMK AO2
                 VIS 2 1/2V4 =
2016-05-06 14:02 METAR KMUI 061802Z AUTO 04008KT 3SM -RA BR FEW021 OVC025 11/11 A2967 RMK AO2 =
2016-05-06 13:58 METAR KMUI 061758Z 03006KT 2 1/2SM -RA BR FEW007 BKN020 OVC027 11/11 A2967 RMK
                 AO2A VIS 2 1/2V7 DZB46E52RAB52 SLP051 P0000 60024 58006 =
2016-05-06 13:56 METAR KMUI 061756Z 04006KT 2 1/2SM -RA BR BKN022 OVC028 11/11 A2968 RMK AO2A VIS
                 2 1/2V10 DZB46E52RAB52 CIG 021V028 =
2016-05-06 13:46 METAR KMUI 061746Z 02008KT 5SM -DZ BKN021 OVC029 12/10 A2967 RMK AO2A DZB46 =
2016-05-06 13:32 METAR KMUI 061732Z 03010G16KT 10SM FEW007 SCT019 BKN024 BKN035 BKN046 12/10
                 A2967 RMK AO2A CIG 024V045 BKN024 V SCT =
2016-05-06 12:58 METAR KMUI 061658Z 36011G16KT 10SM FEW007 BKN038 OVC048 12/11 A2967 RMK AO2A
                 RAE43DZB43E49 SLP050 P0003 T01160105 =
2016-05-06 12:49 METAR KMUI 061649Z 36009G16KT 10SM FEW007 FEW018 BKN040 OVC048 11/10 A2967 RMK
                 AO2A RAE43DZB43E49 =
2016-05-06 11:58 METAR KMUI 061558Z 01006KT 5SM RA BR FEW006 BKN036 OVC045 11/11 A2970 RMK AO2A
                 SLP060 P0014 T01070106 =
2016-05-06 10:58 METAR KMUI 061458Z 04005KT 5SM -RA BR SCT035 OVC046 11/10 A2969 RMK AO2A
                 RAE02DZB02E03RAB03E05DZB05E06RAB06 SLP057 P0004 60007 T01120104 50002 =
2016-05-06 09:58 METAR KMUI 061358Z VRB03KT 8SM -RA FEW009 BKN039 OVC055 12/10 A2968 RMK AO2A
                 RAE31DZB31E34RAB34 SLP053 P0003 T01170101 =
2016-05-06 09:44 METAR KMUI 061344Z 02004KT 8SM -RA FEW009 BKN037 OVC055 12/09 A2968 RMK AO2A
                 RAE31DZB31E34RAB34 =
2016-05-06 09:18 METAR KMUI 061318Z COR AUTO 02003KT 10SM -RA FEW009 SCT037 OVC055 12/09 A2969
                 RMK AO2A COR 1323 =
2016-05-06 09:17 METAR KMUI 061317Z 02003KT 10SM -RA FEW009 SCT037 OVC055 12/09 A2969 RMK AO2A =
2016-05-06 09:03 METAR KMUI 061303Z AUTO 02005KT 10SM CLR 12/09 A2969 RMK AO2 =
2016-05-06 08:58 METAR KMUI 061258Z AUTO 03005KT 10SM -RA FEW190 12/09 A2969 RMK AO2
                 RAE02DZB02E21DZB26E51RAB51 SLP057 P0000 T01220085 =
2016-05-06 08:57 METAR KMUI 061257Z AUTO 03005KT 10SM -RA FEW190 12/09 A2969 RMK AO2
                 RAE02DZB02E21DZB26E51RAB51 =
2016-05-06 08:48 METAR KMUI 061248Z AUTO 01005KT 10SM CLR 12/08 A2969 RMK AO2 RAE02DZB02E21DZB26
                 =
2016-05-06 08:26 METAR KMUI 061226Z AUTO 03004KT 10SM -DZ SCT060 12/08 A2969 RMK AO2
                 RAE02DZB02E21DZB26 =
2016-05-06 08:21 METAR KMUI 061221Z AUTO 02004KT 10SM BKN060 12/08 A2969 RMK AO2 RAE02DZB02E21 =
2016-05-06 07:58 METAR KMUI 061158Z AUTO 02003KT 10SM -RA OVC050 12/08 A2969 RMK AO2
                 DZB51E55RAB55 SLP057 P0000 60000 T01240076 10126 20110 53006 =
2016-05-06 07:51 METAR KMUI 061151Z AUTO 03005KT 10SM -DZ OVC050 12/07 A2969 RMK AO2 DZB51 =
2016-05-06 06:58 METAR KMUI 061058Z AUTO 03006KT 10SM OVC043 13/07 A2968 RMK AO2 SLP053 T01250072
                 =
2016-05-06 05:58 METAR KMUI 060958Z AUTO 35008KT 310V020 10SM SCT043 OVC055 12/07 A2966 RMK AO2
                 SLP047 T01230071 =
2016-05-06 04:58 METAR KMUI 060858Z AUTO 35008KT 10SM OVC042 12/07 A2967 RMK AO2 SLP050 T01220071
                 55001 =
2016-05-06 03:58 METAR KMUI 060758Z AUTO 01005KT 10SM OVC039 12/07 A2967 RMK AO2 SLP050 T01200072
                 =
2016-05-06 02:58 METAR KMUI 060658Z AUTO 01007KT 10SM OVC044 12/07 A2967 RMK AO2 SLP050 T01200072
                 =
2016-05-06 01:58 METAR KMUI 060558Z AUTO 36002KT 10SM OVC040 11/09 A2967 RMK AO2 RAE01RAB03E20
                 SLP050 P0000 60000 T01100092 10135 20107 58003 =
2016-05-06 01:20 METAR KMUI 060520Z AUTO 36001KT 10SM OVC037 11/10 A2968 RMK AO2 RAE01RAB03E20 =
2016-05-06 01:03 METAR KMUI 060503Z AUTO 10001KT 10SM -RA SCT038 BKN049 BKN100 BKN120 12/09 A2968
                 RMK AO2 RAE01RAB03 =
2016-05-06 01:01 METAR KMUI 060501Z AUTO 11002KT 10SM SCT038 BKN049 BKN100 BKN120 12/09 A2968 RMK
                 AO2 RAE01 =
2016-05-06 00:58 METAR KMUI 060458Z AUTO 00000KT 10SM -RA SCT040 SCT049 BKN100 BKN120 12/09 A2968
                 RMK AO2 RAB51 SLP053 P0000 T01180086 401450086 =
2016-05-06 00:51 METAR KMUI 060451Z AUTO 04001KT 10SM -RA SCT041 SCT049 BKN100 BKN120 12/08 A2968
                 RMK AO2 RAB51 =
2016-05-05 23:58 METAR KMUI 060358Z AUTO 03006KT 10SM OVC038 13/07 A2968 RMK AO2 SLP053 T01300070
                 =
2016-05-05 22:58 METAR KMUI 060258Z AUTO 01007KT 350V060 10SM OVC043 13/07 A2968 RMK AO2 SLP053
                 T01330070 52009 =
2016-05-05 21:58 METAR KMUI 060158Z AUTO 01006KT 10SM OVC046 13/07 A2968 RMK AO2 SLP053 T01320069
                 =
2016-05-05 20:58 METAR KMUI 060058Z AUTO 02006KT 10SM OVC046 13/07 A2966 RMK AO2 SLP047 T01340068
                 =

Support USWX by starting your Amazon purchase here.